createdAt,value
2019-04-14T00:01:17.923Z,2.00
2019-04-14T00:04:23.216Z,1.90
2019-04-14T00:06:50.880Z,2.00
2019-04-14T00:09:20.465Z,1.90
2019-04-14T00:11:48.412Z,2.00
2019-04-14T00:14:16.412Z,2.10
2019-04-14T00:16:44.609Z,2.10
2019-04-14T00:19:13.034Z,2.10
2019-04-14T00:21:41.119Z,2.00
2019-04-14T00:24:09.476Z,2.00
2019-04-14T00:26:37.931Z,2.10
2019-04-14T00:29:06.689Z,2.00
2019-04-14T00:31:34.915Z,2.10
2019-04-14T00:34:07.236Z,2.10
2019-04-14T00:36:41.973Z,2.00
2019-04-14T00:39:18.999Z,2.10
2019-04-14T00:41:59.917Z,2.20
2019-04-14T00:45:00.515Z,2.10
2019-04-14T00:47:49.817Z,2.10
2019-04-14T00:50:06.100Z,2.20
2019-04-14T00:52:34.083Z,2.00
2019-04-14T00:55:03.193Z,2.00
2019-04-14T00:57:31.157Z,2.00
2019-04-14T00:59:59.512Z,1.90
2019-04-14T01:02:27.523Z,1.90
2019-04-14T01:04:55.526Z,2.00
2019-04-14T01:07:24.151Z,2.00
2019-04-14T01:09:53.099Z,2.00
2019-04-14T01:12:21.368Z,2.00
2019-04-14T01:14:49.571Z,1.90
2019-04-14T01:17:17.715Z,1.90
2019-04-14T01:19:45.994Z,1.90
2019-04-14T01:22:14.176Z,1.90
2019-04-14T01:24:42.522Z,2.00
2019-04-14T01:27:10.291Z,2.00
2019-04-14T01:29:38.457Z,1.90
2019-04-14T01:32:06.647Z,1.70
2019-04-14T01:34:34.787Z,1.70
2019-04-14T01:37:02.975Z,1.80
2019-04-14T01:39:30.760Z,1.90
2019-04-14T01:41:58.536Z,1.70
2019-04-14T01:44:26.426Z,1.50
2019-04-14T01:46:54.258Z,1.40
2019-04-14T01:49:22.530Z,1.30
2019-04-14T01:52:03.530Z,1.40
2019-04-14T01:54:51.367Z,1.30
2019-04-14T01:57:32.885Z,1.50
2019-04-14T02:00:20.799Z,1.60
2019-04-14T02:02:48.787Z,1.70
2019-04-14T02:05:16.821Z,1.50
2019-04-14T02:07:45.131Z,1.40
2019-04-14T02:10:12.923Z,1.30
2019-04-14T02:12:40.969Z,1.20
2019-04-14T02:15:09.137Z,1.10
2019-04-14T02:17:37.100Z,1.10
2019-04-14T02:20:05.599Z,1.10
2019-04-14T02:22:33.457Z,1.20
2019-04-14T02:25:01.429Z,1.20
2019-04-14T02:27:29.721Z,1.10
2019-04-14T02:29:58.226Z,1.20
2019-04-14T02:33:00.296Z,1.30
2019-04-14T02:35:31.774Z,1.20
2019-04-14T02:37:58.911Z,1.20
2019-04-14T02:42:46.689Z,1.30
2019-04-14T02:45:32.210Z,1.20
2019-04-14T02:50:15.513Z,1.20
2019-04-14T02:52:54.742Z,1.30
2019-04-14T02:55:11.000Z,1.30
2019-04-14T02:57:49.350Z,1.20
2019-04-14T03:00:17.106Z,1.20
2019-04-14T03:05:10.282Z,1.20
2019-04-14T03:07:45.836Z,1.20
2019-04-14T03:10:10.464Z,1.20
2019-04-14T03:12:44.046Z,1.30
2019-04-14T03:15:19.448Z,1.20
2019-04-14T03:18:20.437Z,1.40
2019-04-14T03:20:43.336Z,1.50
2019-04-14T03:23:30.666Z,1.40
2019-04-14T03:25:54.336Z,1.20
2019-04-14T03:28:31.863Z,1.10
2019-04-14T03:31:14.904Z,1.30
2019-04-14T03:41:12.347Z,1.80
2019-04-14T03:43:39.330Z,1.60
2019-04-14T03:46:01.064Z,1.60
2019-04-14T03:51:00.653Z,1.40
2019-04-14T03:53:38.723Z,1.70
2019-04-14T03:56:09.147Z,1.80
2019-04-14T03:58:35.715Z,1.90
2019-04-14T04:01:04.034Z,1.50
2019-04-14T04:03:32.410Z,1.50
2019-04-14T04:06:00.763Z,1.40
2019-04-14T04:08:29.133Z,1.40
2019-04-14T04:10:57.571Z,1.40
2019-04-14T04:13:25.932Z,1.50
2019-04-14T04:15:56.206Z,1.50
2019-04-14T04:18:26.552Z,1.50
2019-04-14T04:21:29.149Z,1.60
2019-04-14T04:24:17.053Z,1.60
2019-04-14T04:26:58.191Z,1.70
2019-04-14T04:29:39.790Z,1.80
2019-04-14T04:32:45.372Z,1.90
2019-04-14T04:35:17.507Z,1.90
2019-04-14T04:37:52.024Z,1.90
2019-04-14T04:40:22.378Z,1.90
2019-04-14T04:42:50.516Z,1.90
2019-04-14T04:45:19.145Z,2.00
2019-04-14T04:47:46.995Z,2.10
2019-04-14T04:50:15.053Z,2.20
2019-04-14T04:52:42.991Z,2.10
2019-04-14T04:55:11.241Z,2.00
2019-04-14T04:57:39.518Z,2.10
2019-04-14T05:00:07.368Z,2.10
2019-04-14T05:02:35.301Z,2.10
2019-04-14T05:05:03.526Z,2.10
2019-04-14T05:07:31.704Z,2.20
2019-04-14T05:10:28.586Z,2.10
2019-04-14T05:13:07.305Z,2.10
2019-04-14T05:15:59.946Z,2.10
2019-04-14T05:18:27.447Z,2.10
2019-04-14T05:20:55.983Z,2.00
2019-04-14T05:23:23.551Z,2.10
2019-04-14T05:25:51.715Z,2.20
2019-04-14T05:28:19.912Z,2.20
2019-04-14T05:30:48.303Z,2.20
2019-04-14T05:33:16.262Z,2.20
2019-04-14T05:35:44.536Z,2.20
2019-04-14T05:38:12.657Z,2.40
2019-04-14T05:40:40.809Z,2.50
2019-04-14T05:43:08.905Z,2.30
2019-04-14T05:45:37.312Z,2.30
2019-04-14T05:48:05.336Z,2.20
2019-04-14T05:50:33.522Z,2.20
2019-04-14T05:53:02.248Z,2.10
2019-04-14T05:55:30.576Z,2.10
2019-04-14T05:57:59.108Z,1.90
2019-04-14T06:00:27.788Z,2.00
2019-04-14T06:02:55.271Z,2.20
2019-04-14T06:05:23.275Z,2.10
2019-04-14T06:07:51.009Z,2.10
2019-04-14T06:10:18.244Z,2.30
2019-04-14T06:12:45.748Z,2.40
2019-04-14T06:15:13.295Z,2.60
2019-04-14T06:17:40.611Z,2.50
2019-04-14T06:20:08.348Z,2.60
2019-04-14T06:22:35.988Z,2.60
2019-04-14T06:25:05.492Z,2.20
2019-04-14T06:27:33.132Z,2.40
2019-04-14T06:30:16.051Z,2.30
2019-04-14T06:32:43.821Z,2.50
2019-04-14T06:35:30.703Z,2.40
2019-04-14T06:38:01.007Z,2.60
2019-04-14T06:40:31.453Z,2.60
2019-04-14T06:42:59.264Z,2.60
2019-04-14T06:45:26.825Z,2.70
2019-04-14T06:47:54.358Z,2.80
2019-04-14T06:50:21.593Z,2.90
2019-04-14T06:52:48.969Z,2.70
2019-04-14T06:55:16.209Z,2.90
2019-04-14T06:57:43.720Z,2.80
2019-04-14T07:00:11.052Z,2.90
2019-04-14T07:02:38.815Z,2.90
2019-04-14T07:05:06.052Z,2.70
2019-04-14T07:07:33.811Z,2.80
2019-04-14T07:10:01.180Z,2.90
2019-04-14T07:12:28.447Z,2.80
2019-04-14T07:14:55.992Z,2.90
2019-04-14T07:17:23.828Z,3.00
2019-04-14T07:20:01.363Z,3.20
2019-04-14T07:22:22.434Z,3.00
2019-04-14T07:24:49.852Z,2.90
2019-04-14T07:27:17.451Z,3.00
2019-04-14T07:29:50.372Z,3.20
2019-04-14T07:32:43.187Z,3.10
2019-04-14T07:35:23.067Z,3.00
2019-04-14T07:38:05.688Z,3.00
2019-04-14T07:40:44.735Z,3.10
2019-04-14T07:43:23.726Z,3.20
2019-04-14T07:46:19.845Z,3.30
2019-04-14T07:49:06.696Z,3.40
2019-04-14T07:51:45.009Z,3.60
2019-04-14T07:54:17.862Z,3.60
2019-04-14T07:57:08.203Z,3.70
2019-04-14T07:59:45.876Z,3.60
2019-04-14T08:02:27.229Z,3.90
2019-04-14T08:05:20.176Z,3.90
2019-04-14T08:07:48.624Z,3.80
2019-04-14T08:10:15.922Z,3.80
2019-04-14T08:12:43.396Z,4.10
2019-04-14T08:15:11.656Z,4.30
2019-04-14T08:17:39.347Z,4.60
2019-04-14T08:20:07.252Z,5.00
2019-04-14T08:22:34.634Z,4.50
2019-04-14T08:25:01.933Z,4.20
2019-04-14T08:27:29.636Z,4.40
2019-04-14T08:29:57.283Z,4.20
2019-04-14T08:32:24.907Z,4.40
2019-04-14T08:34:52.139Z,4.30
2019-04-14T08:37:19.386Z,4.30
2019-04-14T08:39:47.077Z,4.40
2019-04-14T08:42:43.343Z,4.60
2019-04-14T08:45:19.645Z,4.80
2019-04-14T08:47:55.801Z,4.70
2019-04-14T08:50:45.760Z,4.70
2019-04-14T08:53:21.933Z,4.60
2019-04-14T08:56:06.472Z,4.60
2019-04-14T08:59:02.212Z,4.80
2019-04-14T09:01:38.909Z,4.70
2019-04-14T09:04:25.752Z,4.90
2019-04-14T09:06:58.626Z,4.90
2019-04-14T09:09:28.893Z,5.20
2019-04-14T09:11:59.114Z,5.10
2019-04-14T09:14:26.525Z,5.30
2019-04-14T09:16:54.136Z,5.40
2019-04-14T09:19:22.807Z,5.30
2019-04-14T09:21:50.083Z,5.50
2019-04-14T09:24:17.711Z,5.60
2019-04-14T09:26:44.970Z,5.40
2019-04-14T09:29:12.365Z,5.40
2019-04-14T09:31:40.208Z,5.30
2019-04-14T09:34:07.677Z,5.20
2019-04-14T09:36:34.938Z,5.30
2019-04-14T09:39:02.820Z,5.60
2019-04-14T09:41:30.218Z,6.10
2019-04-14T09:43:57.626Z,6.40
2019-04-14T09:46:24.877Z,6.40
2019-04-14T09:48:52.489Z,6.80
2019-04-14T09:51:19.629Z,6.50
2019-04-14T09:53:47.297Z,6.50
2019-04-14T09:56:14.524Z,6.50
2019-04-14T09:58:41.945Z,6.50
2019-04-14T10:01:09.220Z,6.30
2019-04-14T10:03:36.687Z,6.30
2019-04-14T10:06:04.375Z,6.50
2019-04-14T10:08:32.037Z,7.10
2019-04-14T10:10:59.602Z,7.60
2019-04-14T10:13:26.959Z,7.70
2019-04-14T10:15:54.555Z,7.90
2019-04-14T10:18:22.584Z,7.90
2019-04-14T10:20:50.141Z,7.80
2019-04-14T10:23:17.447Z,7.60
2019-04-14T10:25:44.680Z,7.80
2019-04-14T10:28:12.189Z,8.20
2019-04-14T10:30:39.627Z,9.30
2019-04-14T10:33:06.855Z,9.30
2019-04-14T10:35:34.473Z,10.20
2019-04-14T10:38:02.032Z,10.10
2019-04-14T10:40:29.304Z,10.10
2019-04-14T10:42:56.544Z,9.80
2019-04-14T10:45:23.851Z,10.30
2019-04-14T10:47:51.448Z,10.50
2019-04-14T10:50:30.216Z,10.60
2019-04-14T10:52:47.844Z,10.40
2019-04-14T10:55:15.109Z,10.70
2019-04-14T10:57:42.339Z,10.30
2019-04-14T11:00:14.219Z,10.70
2019-04-14T11:02:42.017Z,10.40
2019-04-14T11:05:09.472Z,10.40
2019-04-14T11:07:37.042Z,10.90
2019-04-14T11:10:05.441Z,10.70
2019-04-14T11:12:32.974Z,9.90
2019-04-14T11:15:00.231Z,9.70
2019-04-14T11:17:27.470Z,9.50
2019-04-14T11:19:55.343Z,9.70
2019-04-14T11:22:22.580Z,9.80
2019-04-14T11:24:49.896Z,10.50
2019-04-14T11:27:17.136Z,10.70
2019-04-14T11:29:44.785Z,11.80
2019-04-14T11:32:30.471Z,11.90
2019-04-14T11:35:07.957Z,12.90
2019-04-14T11:37:53.509Z,13.20
2019-04-14T11:40:24.049Z,12.20
2019-04-14T11:42:52.514Z,11.80
2019-04-14T11:45:20.449Z,10.50
2019-04-14T11:47:47.683Z,10.80
2019-04-14T11:50:15.100Z,11.40
2019-04-14T11:52:42.323Z,10.70
2019-04-14T11:55:10.419Z,10.90
2019-04-14T11:57:38.003Z,11.60
2019-04-14T12:00:24.140Z,11.60
2019-04-14T12:03:07.940Z,11.40
2019-04-14T12:05:53.805Z,11.60
2019-04-14T12:08:40.551Z,11.50
2019-04-14T12:11:08.175Z,11.50
2019-04-14T12:13:35.831Z,12.40
2019-04-14T12:16:03.903Z,13.30
2019-04-14T12:18:34.128Z,13.20
2019-04-14T12:21:01.703Z,13.50
2019-04-14T12:23:29.153Z,13.00
2019-04-14T12:26:05.287Z,13.60
2019-04-14T12:28:26.266Z,14.50
2019-04-14T12:30:53.720Z,14.60
2019-04-14T12:33:21.227Z,14.50
2019-04-14T12:35:48.784Z,13.90
2019-04-14T12:38:16.340Z,12.60
2019-04-14T12:40:44.362Z,12.90
2019-04-14T12:43:25.017Z,14.10
2019-04-14T12:46:16.302Z,14.40
2019-04-14T12:49:09.344Z,15.50
2019-04-14T12:51:40.492Z,14.70
2019-04-14T12:54:07.761Z,14.60
2019-04-14T12:56:35.080Z,13.80
2019-04-14T12:59:23.410Z,12.90
2019-04-14T13:02:06.517Z,13.30
2019-04-14T13:04:33.840Z,12.80
2019-04-14T13:07:01.377Z,13.40
2019-04-14T13:09:28.639Z,13.90
2019-04-14T13:11:55.869Z,13.70
2019-04-14T13:14:23.856Z,14.20
2019-04-14T13:16:51.083Z,14.20
2019-04-14T13:19:18.339Z,13.50
2019-04-14T13:21:45.550Z,12.30
2019-04-14T13:24:12.856Z,12.60
2019-04-14T13:26:40.105Z,13.20
2019-04-14T13:29:07.332Z,13.30
2019-04-14T13:31:34.596Z,12.50
2019-04-14T13:34:02.476Z,11.90
2019-04-14T13:36:29.749Z,11.50
2019-04-14T13:38:57.296Z,11.10
2019-04-14T13:41:24.699Z,11.40
2019-04-14T13:43:51.930Z,11.70
2019-04-14T13:46:19.868Z,11.80
2019-04-14T13:48:47.443Z,10.90
2019-04-14T13:51:15.084Z,10.80
2019-04-14T13:53:42.312Z,10.90
2019-04-14T13:56:09.598Z,11.50
2019-04-14T13:58:39.183Z,11.30
2019-04-14T14:01:06.549Z,11.20
2019-04-14T14:03:33.880Z,11.10
2019-04-14T14:06:01.182Z,10.60
2019-04-14T14:08:28.417Z,10.30
2019-04-14T14:11:01.808Z,10.40
2019-04-14T14:13:46.361Z,10.70
2019-04-14T14:16:31.024Z,11.30
2019-04-14T14:19:05.696Z,11.30
2019-04-14T14:21:51.385Z,11.00
2019-04-14T14:24:26.564Z,10.70
2019-04-14T14:26:54.150Z,10.40
2019-04-14T14:29:21.587Z,10.20
2019-04-14T14:31:49.484Z,10.40
2019-04-14T14:34:16.715Z,10.40
2019-04-14T14:36:44.266Z,10.40
2019-04-14T14:39:12.023Z,10.50
2019-04-14T14:41:39.305Z,10.50
2019-04-14T14:44:06.832Z,10.60
2019-04-14T14:46:56.716Z,11.00
2019-04-14T14:49:42.189Z,11.20
2019-04-14T14:52:12.111Z,11.20
2019-04-14T14:54:39.677Z,10.70
2019-04-14T14:57:07.122Z,10.40
2019-04-14T14:59:34.444Z,10.40
2019-04-14T15:02:01.695Z,10.40
2019-04-14T15:04:29.288Z,10.70
2019-04-14T15:06:56.951Z,10.50
2019-04-14T15:09:24.507Z,10.40
2019-04-14T15:11:51.803Z,10.20
2019-04-14T15:14:19.319Z,10.00
2019-04-14T15:16:46.583Z,9.90
2019-04-14T15:19:13.822Z,9.80
2019-04-14T15:21:41.384Z,9.70
2019-04-14T15:24:08.633Z,9.50
2019-04-14T15:26:35.897Z,9.70
2019-04-14T15:29:03.420Z,9.80
2019-04-14T15:31:30.675Z,10.10
2019-04-14T15:33:58.255Z,10.10
2019-04-14T15:36:25.815Z,10.40
2019-04-14T15:38:53.379Z,10.60
2019-04-14T15:41:20.662Z,10.60
2019-04-14T15:43:48.287Z,10.30
2019-04-14T15:46:15.584Z,10.00
2019-04-14T15:48:42.816Z,10.00
2019-04-14T15:51:10.120Z,10.20
2019-04-14T15:53:38.507Z,10.40
2019-04-14T15:56:07.316Z,10.20
2019-04-14T15:58:46.084Z,10.40
2019-04-14T16:01:31.967Z,10.30
2019-04-14T16:04:11.715Z,10.10
2019-04-14T16:07:04.788Z,9.80
2019-04-14T16:09:40.475Z,9.60
2019-04-14T16:12:31.359Z,9.50
2019-04-14T16:15:33.348Z,9.60
2019-04-14T16:18:10.563Z,9.50
2019-04-14T16:20:39.576Z,9.90
2019-04-14T16:23:07.290Z,10.10
2019-04-14T16:26:06.611Z,10.10
2019-04-14T16:28:39.992Z,10.20
2019-04-14T16:31:25.986Z,10.10
2019-04-14T16:34:18.630Z,10.30
2019-04-14T16:36:46.268Z,9.90
2019-04-14T16:39:13.849Z,9.70
2019-04-14T16:41:41.520Z,9.70
2019-04-14T16:44:09.103Z,9.60
2019-04-14T16:46:36.660Z,9.40
2019-04-14T16:49:04.184Z,9.20
2019-04-14T16:51:36.512Z,9.30
2019-04-14T16:54:12.407Z,9.60
2019-04-14T16:56:54.907Z,9.70
2019-04-14T16:59:22.507Z,9.80
2019-04-14T17:01:49.911Z,9.70
2019-04-14T17:04:17.144Z,9.50
2019-04-14T17:06:44.747Z,9.40
2019-04-14T17:09:12.523Z,9.40
2019-04-14T17:11:40.086Z,9.20
2019-04-14T17:14:21.860Z,9.20
2019-04-14T17:17:20.452Z,9.10
2019-04-14T17:20:16.376Z,9.00
2019-04-14T17:22:54.680Z,9.00
2019-04-14T17:25:32.646Z,8.90
2019-04-14T17:28:31.708Z,8.90
2019-04-14T17:31:18.238Z,8.80
2019-04-14T17:34:07.711Z,8.70
2019-04-14T17:37:00.665Z,8.50
2019-04-14T17:40:05.788Z,8.30
2019-04-14T17:42:38.618Z,8.00
2019-04-14T17:45:13.513Z,7.90
2019-04-14T17:47:49.252Z,7.70
2019-04-14T17:50:41.061Z,7.60
2019-04-14T17:53:25.446Z,7.50
2019-04-14T17:56:08.620Z,7.40
2019-04-14T17:58:51.116Z,7.30
2019-04-14T18:01:27.655Z,7.30
2019-04-14T18:04:01.683Z,7.20
2019-04-14T18:06:51.247Z,7.00
2019-04-14T18:09:24.944Z,7.00
2019-04-14T18:12:14.554Z,6.90
2019-04-14T18:15:07.776Z,6.80
2019-04-14T18:17:54.611Z,6.70
2019-04-14T18:20:35.302Z,6.70
2019-04-14T18:23:02.685Z,6.60
2019-04-14T18:25:31.232Z,6.60
2019-04-14T18:28:14.368Z,6.50
2019-04-14T18:30:48.224Z,6.40
2019-04-14T18:33:39.947Z,6.40
2019-04-14T18:36:29.836Z,6.30
2019-04-14T18:39:14.090Z,6.30
2019-04-14T18:41:57.787Z,6.20
2019-04-14T18:44:34.748Z,6.20
2019-04-14T18:47:15.353Z,6.10
2019-04-14T18:50:08.214Z,6.00
2019-04-14T18:52:54.481Z,5.90
2019-04-14T18:55:44.356Z,6.00
2019-04-14T18:58:37.295Z,6.20
2019-04-14T19:01:08.563Z,5.90
2019-04-14T19:03:36.104Z,5.80
2019-04-14T19:06:03.904Z,5.70
2019-04-14T19:08:31.528Z,5.60
2019-04-14T19:11:18.347Z,5.50
2019-04-14T19:13:46.712Z,5.50
2019-04-14T19:16:17.476Z,5.60
2019-04-14T19:18:49.767Z,5.50
2019-04-14T19:21:19.836Z,5.40
2019-04-14T19:23:47.521Z,5.40
2019-04-14T19:26:14.815Z,5.30
2019-04-14T19:28:42.039Z,5.20
2019-04-14T19:31:09.659Z,5.20
2019-04-14T19:33:36.904Z,5.10
2019-04-14T19:36:04.227Z,5.10
2019-04-14T19:38:32.144Z,5.10
2019-04-14T19:40:59.803Z,5.10
2019-04-14T19:43:27.667Z,5.00
2019-04-14T19:45:56.455Z,5.00
2019-04-14T19:48:24.320Z,4.90
2019-04-14T19:50:51.564Z,4.80
2019-04-14T19:53:18.884Z,4.80
2019-04-14T19:55:46.145Z,4.80
2019-04-14T19:58:13.479Z,4.70
2019-04-14T20:00:40.807Z,4.60
2019-04-14T20:03:08.069Z,4.70
2019-04-14T20:05:35.426Z,4.60
2019-04-14T20:08:03.461Z,4.60
2019-04-14T20:10:30.684Z,4.60
2019-04-14T20:12:57.953Z,4.50
2019-04-14T20:15:28.333Z,4.50
2019-04-14T20:18:04.516Z,4.50
2019-04-14T20:21:06.336Z,4.40
2019-04-14T20:23:47.264Z,4.40
2019-04-14T20:26:32.624Z,4.40
2019-04-14T20:29:21.472Z,4.20
2019-04-14T20:31:55.527Z,4.10
2019-04-14T20:34:22.760Z,4.10
2019-04-14T20:36:50.027Z,4.10
2019-04-14T20:39:18.485Z,4.00
2019-04-14T20:41:45.754Z,3.90
2019-04-14T20:44:13.381Z,3.90
2019-04-14T20:46:41.292Z,4.10
2019-04-14T20:49:09.156Z,4.10
2019-04-14T20:51:36.735Z,4.20
2019-04-14T20:54:04.147Z,4.20
2019-04-14T20:56:31.840Z,4.10
2019-04-14T20:58:59.096Z,4.10
2019-04-14T21:01:28.592Z,4.00
2019-04-14T21:04:07.933Z,4.00
2019-04-14T21:06:45.369Z,4.00
2019-04-14T21:09:24.243Z,3.90
2019-04-14T21:12:08.616Z,4.00
2019-04-14T21:15:01.652Z,4.00
2019-04-14T21:18:01.166Z,3.90
2019-04-14T21:20:44.061Z,3.80
2019-04-14T21:23:20.150Z,3.70
2019-04-14T21:26:00.787Z,3.70
2019-04-14T21:28:33.777Z,3.60
2019-04-14T21:31:26.658Z,3.60
2019-04-14T21:34:00.977Z,3.40
2019-04-14T21:36:42.039Z,3.40
2019-04-14T21:39:44.213Z,3.40
2019-04-14T21:42:12.296Z,3.40
2019-04-14T21:44:41.774Z,3.40
2019-04-14T21:47:09.425Z,3.30
2019-04-14T21:49:36.838Z,3.40
2019-04-14T21:52:12.653Z,3.40
2019-04-14T21:54:41.715Z,3.50
2019-04-14T21:57:47.427Z,3.50
2019-04-14T22:00:35.095Z,3.40
2019-04-14T22:03:21.776Z,3.50
2019-04-14T22:06:00.355Z,3.30
2019-04-14T22:08:30.648Z,3.30
2019-04-14T22:11:01.061Z,3.40
2019-04-14T22:13:28.304Z,3.30
2019-04-14T22:15:55.959Z,3.20
2019-04-14T22:18:23.568Z,3.20
2019-04-14T22:20:51.147Z,3.20
2019-04-14T22:23:18.743Z,3.10
2019-04-14T22:25:46.247Z,3.00
2019-04-14T22:28:13.613Z,3.00
2019-04-14T22:30:41.592Z,3.00
2019-04-14T22:33:08.847Z,3.00
2019-04-14T22:35:36.382Z,3.00
2019-04-14T22:38:03.620Z,2.90
2019-04-14T22:40:30.995Z,2.90
2019-04-14T22:42:58.227Z,2.90
2019-04-14T22:45:25.861Z,2.90
2019-04-14T22:47:53.366Z,2.80
2019-04-14T22:50:20.915Z,2.80
2019-04-14T22:52:48.142Z,2.80
2019-04-14T22:55:15.407Z,2.90
2019-04-14T22:57:42.631Z,2.80
2019-04-14T23:00:15.480Z,2.70
2019-04-14T23:02:55.861Z,2.60
2019-04-14T23:05:42.268Z,2.70
2019-04-14T23:08:21.661Z,2.70
2019-04-14T23:11:00.999Z,2.60
2019-04-14T23:13:47.817Z,2.60
2019-04-14T23:16:43.516Z,2.50
2019-04-14T23:19:15.031Z,2.40
2019-04-14T23:21:51.332Z,2.50
2019-04-14T23:24:20.812Z,2.30
2019-04-14T23:26:52.636Z,2.20
2019-04-14T23:29:17.295Z,2.10
2019-04-14T23:31:44.508Z,2.00
2019-04-14T23:34:12.095Z,2.00
2019-04-14T23:36:39.356Z,2.00
2019-04-14T23:39:10.019Z,1.90
2019-04-14T23:41:37.273Z,1.90
2019-04-14T23:44:04.484Z,2.00
2019-04-14T23:46:31.716Z,2.00
2019-04-14T23:48:59.291Z,2.00
2019-04-14T23:51:26.537Z,2.00
2019-04-14T23:53:53.859Z,2.10
2019-04-14T23:56:21.080Z,2.20
2019-04-14T23:58:48.395Z,2.20
